createdAt,value
2023-02-27T00:00:00.000Z,72.08
2023-02-27T00:15:00.000Z,72.3
2023-02-27T00:30:00.000Z,72.96
2023-02-27T00:45:00.000Z,72.87
2023-02-27T01:00:00.000Z,73.15
2023-02-27T01:15:00.000Z,73.29
2023-02-27T01:30:00.000Z,72.9
2023-02-27T01:45:00.000Z,72.27
2023-02-27T02:00:00.000Z,71.84
2023-02-27T02:15:00.000Z,71.52
2023-02-27T02:30:00.000Z,71.48
2023-02-27T02:45:00.000Z,71.35
2023-02-27T03:00:00.000Z,71.13
2023-02-27T03:15:00.000Z,71.17
2023-02-27T03:30:00.000Z,71.51
2023-02-27T03:45:00.000Z,71.55
2023-02-27T04:00:00.000Z,71.28
2023-02-27T04:15:00.000Z,71.46
2023-02-27T04:30:00.000Z,71.94
2023-02-27T04:45:00.000Z,72.91
2023-02-27T05:00:00.000Z,73.11
2023-02-27T05:15:00.000Z,72.85
2023-02-27T05:30:00.000Z,72.54
2023-02-27T05:45:00.000Z,73.07
2023-02-27T06:00:00.000Z,73.17
2023-02-27T06:15:00.000Z,72.43
2023-02-27T06:30:00.000Z,71.25
2023-02-27T06:45:00.000Z,70.05
2023-02-27T07:00:00.000Z,69.22
2023-02-27T07:15:00.000Z,68.21
2023-02-27T07:30:00.000Z,67.24
2023-02-27T07:45:00.000Z,65.39
2023-02-27T08:00:00.000Z,64.48
2023-02-27T08:15:00.000Z,62.63
2023-02-27T08:30:00.000Z,60.87
2023-02-27T08:45:00.000Z,59.4
2023-02-27T09:00:00.000Z,57.89
2023-02-27T09:15:00.000Z,56.67
2023-02-27T09:30:00.000Z,54.57
2023-02-27T09:45:00.000Z,53.57
2023-02-27T10:00:00.000Z,55.34
2023-02-27T10:15:00.000Z,55.31
2023-02-27T10:30:00.000Z,55.77
2023-02-27T10:45:00.000Z,55.85
2023-02-27T11:00:00.000Z,54.41
2023-02-27T11:15:00.000Z,52.66
2023-02-27T11:30:00.000Z,53.54
2023-02-27T11:45:00.000Z,53.61
2023-02-27T12:00:00.000Z,53.4
2023-02-27T12:15:00.000Z,52.15
2023-02-27T12:30:00.000Z,52.62
2023-02-27T12:45:00.000Z,54.47
2023-02-27T13:00:00.000Z,55.97
2023-02-27T13:15:00.000Z,58.43
2023-02-27T13:30:00.000Z,58.84
2023-02-27T13:45:00.000Z,58.49
2023-02-27T14:00:00.000Z,58.69
2023-02-27T14:15:00.000Z,57.74
2023-02-27T14:30:00.000Z,58.37
2023-02-27T14:45:00.000Z,58.79
2023-02-27T15:00:00.000Z,58.47
2023-02-27T15:15:00.000Z,58.34
2023-02-27T15:30:00.000Z,58.95
2023-02-27T15:45:00.000Z,60.88
2023-02-27T16:00:00.000Z,62.21
2023-02-27T16:15:00.000Z,62.69
2023-02-27T16:30:00.000Z,62.32
2023-02-27T16:45:00.000Z,61.99
2023-02-27T17:00:00.000Z,61.78
2023-02-27T17:15:00.000Z,60.43
2023-02-27T17:30:00.000Z,60.12
2023-02-27T17:45:00.000Z,60.33
2023-02-27T18:00:00.000Z,60.31
2023-02-27T18:15:00.000Z,59.77
2023-02-27T18:30:00.000Z,59.23
2023-02-27T18:45:00.000Z,58.72
2023-02-27T19:00:00.000Z,58.67
2023-02-27T19:15:00.000Z,59.03
2023-02-27T19:30:00.000Z,59.11
2023-02-27T19:45:00.000Z,59.47
2023-02-27T20:00:00.000Z,59.14
2023-02-27T20:15:00.000Z,59.76
2023-02-27T20:30:00.000Z,60.23
2023-02-27T20:45:00.000Z,60.43
2023-02-27T21:00:00.000Z,61.05
2023-02-27T21:15:00.000Z,61.82
2023-02-27T21:30:00.000Z,62.38
2023-02-27T21:45:00.000Z,63.35
2023-02-27T22:00:00.000Z,63.74
2023-02-27T22:15:00.000Z,63.91
2023-02-27T22:30:00.000Z,65.01
2023-02-27T22:45:00.000Z,66.05
2023-02-27T23:00:00.000Z,66.62
2023-02-27T23:15:00.000Z,66.34
2023-02-27T23:30:00.000Z,66.45
2023-02-27T23:45:00.000Z,66.94
